sensor_id;sensor_type;location;lat;lon;timestamp;P1;durP1;ratioP1;P2;durP2;ratioP2
55312;SDS011;46892;45.668;11.756;2022-07-21T00:00:32;8.40;;;4.20;;
55312;SDS011;46892;45.668;11.756;2022-07-21T00:02:57;7.13;;;4.37;;
55312;SDS011;46892;45.668;11.756;2022-07-21T00:05:24;8.13;;;4.40;;
55312;SDS011;46892;45.668;11.756;2022-07-21T00:07:51;6.83;;;4.30;;
55312;SDS011;46892;45.668;11.756;2022-07-21T00:10:18;6.60;;;4.10;;
55312;SDS011;46892;45.668;11.756;2022-07-21T00:12:45;7.10;;;4.30;;
55312;SDS011;46892;45.668;11.756;2022-07-21T00:15:12;15.73;;;4.77;;
55312;SDS011;46892;45.668;11.756;2022-07-21T00:17:40;7.20;;;3.90;;
55312;SDS011;46892;45.668;11.756;2022-07-21T00:20:06;6.67;;;4.03;;
55312;SDS011;46892;45.668;11.756;2022-07-21T00:22:34;9.17;;;4.87;;
55312;SDS011;46892;45.668;11.756;2022-07-21T00:24:59;8.60;;;5.07;;
55312;SDS011;46892;45.668;11.756;2022-07-21T00:27:25;10.53;;;4.50;;
55312;SDS011;46892;45.668;11.756;2022-07-21T00:29:51;8.37;;;4.37;;
55312;SDS011;46892;45.668;11.756;2022-07-21T00:32:16;7.03;;;4.37;;
55312;SDS011;46892;45.668;11.756;2022-07-21T00:34:42;8.77;;;4.77;;
55312;SDS011;46892;45.668;11.756;2022-07-21T00:37:09;12.23;;;4.80;;
55312;SDS011;46892;45.668;11.756;2022-07-21T00:39:35;7.50;;;4.80;;
55312;SDS011;46892;45.668;11.756;2022-07-21T00:42:02;8.47;;;4.50;;
55312;SDS011;46892;45.668;11.756;2022-07-21T00:44:28;6.30;;;3.70;;
55312;SDS011;46892;45.668;11.756;2022-07-21T00:46:54;6.43;;;3.83;;
55312;SDS011;46892;45.668;11.756;2022-07-21T00:49:21;34.43;;;6.90;;
55312;SDS011;46892;45.668;11.756;2022-07-21T00:51:47;34.47;;;6.63;;
55312;SDS011;46892;45.668;11.756;2022-07-21T00:54:16;13.27;;;4.80;;
55312;SDS011;46892;45.668;11.756;2022-07-21T00:59:12;12.17;;;5.47;;
55312;SDS011;46892;45.668;11.756;2022-07-21T01:01:40;13.03;;;5.50;;
55312;SDS011;46892;45.668;11.756;2022-07-21T01:04:06;7.70;;;5.20;;
55312;SDS011;46892;45.668;11.756;2022-07-21T01:06:32;7.93;;;4.53;;
55312;SDS011;46892;45.668;11.756;2022-07-21T01:08:57;7.23;;;4.37;;
55312;SDS011;46892;45.668;11.756;2022-07-21T01:11:24;7.90;;;4.60;;
55312;SDS011;46892;45.668;11.756;2022-07-21T01:13:50;8.93;;;4.47;;
55312;SDS011;46892;45.668;11.756;2022-07-21T01:16:16;6.33;;;4.20;;
55312;SDS011;46892;45.668;11.756;2022-07-21T01:18:42;8.27;;;5.23;;
55312;SDS011;46892;45.668;11.756;2022-07-21T01:21:16;8.90;;;4.57;;
55312;SDS011;46892;45.668;11.756;2022-07-21T01:23:49;8.20;;;4.93;;
55312;SDS011;46892;45.668;11.756;2022-07-21T01:26:14;9.17;;;4.80;;
55312;SDS011;46892;45.668;11.756;2022-07-21T01:28:40;8.93;;;5.00;;
55312;SDS011;46892;45.668;11.756;2022-07-21T01:31:05;7.67;;;5.27;;
55312;SDS011;46892;45.668;11.756;2022-07-21T01:33:31;7.50;;;4.93;;
55312;SDS011;46892;45.668;11.756;2022-07-21T01:35:57;7.03;;;4.70;;
55312;SDS011;46892;45.668;11.756;2022-07-21T01:38:22;6.77;;;5.00;;
55312;SDS011;46892;45.668;11.756;2022-07-21T01:41:07;11.07;;;5.57;;
55312;SDS011;46892;45.668;11.756;2022-07-21T01:43:50;9.50;;;6.17;;
55312;SDS011;46892;45.668;11.756;2022-07-21T01:46:16;9.53;;;5.30;;
55312;SDS011;46892;45.668;11.756;2022-07-21T01:48:42;10.87;;;5.50;;
55312;SDS011;46892;45.668;11.756;2022-07-21T01:51:09;7.70;;;5.57;;
55312;SDS011;46892;45.668;11.756;2022-07-21T01:53:36;9.50;;;5.50;;
55312;SDS011;46892;45.668;11.756;2022-07-21T01:56:02;12.63;;;6.60;;
55312;SDS011;46892;45.668;11.756;2022-07-21T01:58:29;12.87;;;6.17;;
55312;SDS011;46892;45.668;11.756;2022-07-21T02:00:55;10.13;;;6.00;;
55312;SDS011;46892;45.668;11.756;2022-07-21T02:03:21;10.00;;;6.20;;
55312;SDS011;46892;45.668;11.756;2022-07-21T02:05:47;10.03;;;6.47;;
55312;SDS011;46892;45.668;11.756;2022-07-21T02:08:13;10.70;;;6.77;;
55312;SDS011;46892;45.668;11.756;2022-07-21T02:10:38;15.67;;;6.80;;
55312;SDS011;46892;45.668;11.756;2022-07-21T02:13:04;8.17;;;5.27;;
55312;SDS011;46892;45.668;11.756;2022-07-21T02:15:30;11.70;;;6.20;;
55312;SDS011;46892;45.668;11.756;2022-07-21T02:17:56;9.07;;;6.37;;
55312;SDS011;46892;45.668;11.756;2022-07-21T02:20:23;10.17;;;5.97;;
55312;SDS011;46892;45.668;11.756;2022-07-21T02:22:49;12.30;;;6.53;;
55312;SDS011;46892;45.668;11.756;2022-07-21T02:25:15;14.43;;;7.93;;
55312;SDS011;46892;45.668;11.756;2022-07-21T02:27:42;9.43;;;7.13;;
55312;SDS011;46892;45.668;11.756;2022-07-21T02:30:08;13.93;;;7.63;;
55312;SDS011;46892;45.668;11.756;2022-07-21T02:32:35;12.27;;;7.23;;
55312;SDS011;46892;45.668;11.756;2022-07-21T02:35:01;9.70;;;7.07;;
55312;SDS011;46892;45.668;11.756;2022-07-21T02:37:27;10.43;;;7.43;;
55312;SDS011;46892;45.668;11.756;2022-07-21T02:39:53;13.77;;;7.07;;
55312;SDS011;46892;45.668;11.756;2022-07-21T02:42:19;11.03;;;6.63;;
55312;SDS011;46892;45.668;11.756;2022-07-21T02:44:45;9.57;;;7.00;;
55312;SDS011;46892;45.668;11.756;2022-07-21T02:47:11;13.23;;;7.43;;
55312;SDS011;46892;45.668;11.756;2022-07-21T02:49:36;14.63;;;7.20;;
55312;SDS011;46892;45.668;11.756;2022-07-21T02:52:02;12.50;;;6.63;;
55312;SDS011;46892;45.668;11.756;2022-07-21T02:54:28;8.67;;;6.20;;
55312;SDS011;46892;45.668;11.756;2022-07-21T02:56:54;9.50;;;6.10;;
55312;SDS011;46892;45.668;11.756;2022-07-21T02:59:19;9.30;;;6.50;;
55312;SDS011;46892;45.668;11.756;2022-07-21T03:01:45;9.17;;;6.53;;
55312;SDS011;46892;45.668;11.756;2022-07-21T03:04:12;10.60;;;6.70;;
55312;SDS011;46892;45.668;11.756;2022-07-21T03:06:37;11.73;;;7.13;;
55312;SDS011;46892;45.668;11.756;2022-07-21T03:09:03;12.07;;;7.73;;
55312;SDS011;46892;45.668;11.756;2022-07-21T03:11:29;12.60;;;7.53;;
55312;SDS011;46892;45.668;11.756;2022-07-21T03:13:55;12.53;;;8.03;;
55312;SDS011;46892;45.668;11.756;2022-07-21T03:16:20;11.37;;;7.73;;
55312;SDS011;46892;45.668;11.756;2022-07-21T03:18:46;15.33;;;7.93;;
55312;SDS011;46892;45.668;11.756;2022-07-21T03:21:12;18.37;;;7.63;;
55312;SDS011;46892;45.668;11.756;2022-07-21T03:23:38;10.87;;;7.00;;
55312;SDS011;46892;45.668;11.756;2022-07-21T03:26:04;11.13;;;7.73;;
55312;SDS011;46892;45.668;11.756;2022-07-21T03:28:30;10.03;;;7.40;;
55312;SDS011;46892;45.668;11.756;2022-07-21T03:30:55;10.23;;;6.87;;
55312;SDS011;46892;45.668;11.756;2022-07-21T03:33:21;10.53;;;7.03;;
55312;SDS011;46892;45.668;11.756;2022-07-21T03:35:47;11.43;;;6.90;;
55312;SDS011;46892;45.668;11.756;2022-07-21T03:38:13;10.67;;;6.77;;
55312;SDS011;46892;45.668;11.756;2022-07-21T03:40:38;10.43;;;7.60;;
55312;SDS011;46892;45.668;11.756;2022-07-21T03:43:06;11.43;;;7.23;;
55312;SDS011;46892;45.668;11.756;2022-07-21T03:45:33;10.17;;;6.37;;
55312;SDS011;46892;45.668;11.756;2022-07-21T03:48:01;13.47;;;7.53;;
55312;SDS011;46892;45.668;11.756;2022-07-21T03:50:29;8.37;;;6.37;;
55312;SDS011;46892;45.668;11.756;2022-07-21T03:52:55;14.03;;;7.87;;
55312;SDS011;46892;45.668;11.756;2022-07-21T03:55:21;10.50;;;7.27;;
55312;SDS011;46892;45.668;11.756;2022-07-21T03:57:48;15.07;;;7.23;;
55312;SDS011;46892;45.668;11.756;2022-07-21T04:00:20;14.50;;;7.50;;
55312;SDS011;46892;45.668;11.756;2022-07-21T04:02:50;11.40;;;7.10;;
55312;SDS011;46892;45.668;11.756;2022-07-21T04:05:17;13.13;;;8.13;;
55312;SDS011;46892;45.668;11.756;2022-07-21T04:07:44;10.83;;;6.80;;
55312;SDS011;46892;45.668;11.756;2022-07-21T04:10:12;83.73;;;12.50;;
55312;SDS011;46892;45.668;11.756;2022-07-21T04:12:39;51.07;;;9.67;;
55312;SDS011;46892;45.668;11.756;2022-07-21T04:15:06;20.07;;;7.93;;
55312;SDS011;46892;45.668;11.756;2022-07-21T04:17:33;14.10;;;8.00;;
55312;SDS011;46892;45.668;11.756;2022-07-21T04:19:59;13.93;;;7.53;;
55312;SDS011;46892;45.668;11.756;2022-07-21T04:22:25;15.23;;;7.53;;
55312;SDS011;46892;45.668;11.756;2022-07-21T04:24:51;18.63;;;8.27;;
55312;SDS011;46892;45.668;11.756;2022-07-21T04:27:17;16.03;;;6.97;;
55312;SDS011;46892;45.668;11.756;2022-07-21T04:29:42;16.87;;;7.77;;
55312;SDS011;46892;45.668;11.756;2022-07-21T04:32:08;15.40;;;7.17;;
55312;SDS011;46892;45.668;11.756;2022-07-21T04:34:34;14.90;;;7.93;;
55312;SDS011;46892;45.668;11.756;2022-07-21T04:36:59;13.50;;;8.30;;
55312;SDS011;46892;45.668;11.756;2022-07-21T04:39:25;12.47;;;7.43;;
55312;SDS011;46892;45.668;11.756;2022-07-21T04:41:51;12.73;;;7.27;;
55312;SDS011;46892;45.668;11.756;2022-07-21T04:44:16;12.70;;;8.13;;
55312;SDS011;46892;45.668;11.756;2022-07-21T04:46:42;11.23;;;7.33;;
55312;SDS011;46892;45.668;11.756;2022-07-21T04:49:08;9.80;;;7.67;;
55312;SDS011;46892;45.668;11.756;2022-07-21T04:51:33;12.73;;;7.93;;
55312;SDS011;46892;45.668;11.756;2022-07-21T04:53:59;12.33;;;7.70;;
55312;SDS011;46892;45.668;11.756;2022-07-21T04:56:25;15.20;;;7.80;;
55312;SDS011;46892;45.668;11.756;2022-07-21T04:58:50;15.00;;;8.47;;
55312;SDS011;46892;45.668;11.756;2022-07-21T05:01:16;12.70;;;7.80;;
55312;SDS011;46892;45.668;11.756;2022-07-21T05:03:43;11.30;;;7.33;;
55312;SDS011;46892;45.668;11.756;2022-07-21T05:06:09;14.80;;;8.17;;
55312;SDS011;46892;45.668;11.756;2022-07-21T05:08:35;11.83;;;8.03;;
55312;SDS011;46892;45.668;11.756;2022-07-21T05:11:01;13.13;;;8.43;;
55312;SDS011;46892;45.668;11.756;2022-07-21T05:13:26;10.97;;;7.73;;
55312;SDS011;46892;45.668;11.756;2022-07-21T05:15:52;11.27;;;8.60;;
55312;SDS011;46892;45.668;11.756;2022-07-21T05:18:18;13.57;;;8.33;;
55312;SDS011;46892;45.668;11.756;2022-07-21T05:20:43;11.10;;;7.37;;
55312;SDS011;46892;45.668;11.756;2022-07-21T05:23:09;10.93;;;7.40;;
55312;SDS011;46892;45.668;11.756;2022-07-21T05:25:34;11.00;;;7.40;;
55312;SDS011;46892;45.668;11.756;2022-07-21T05:28:01;11.20;;;6.67;;
55312;SDS011;46892;45.668;11.756;2022-07-21T05:30:27;10.87;;;7.03;;
55312;SDS011;46892;45.668;11.756;2022-07-21T05:32:52;9.13;;;6.57;;
55312;SDS011;46892;45.668;11.756;2022-07-21T05:35:18;9.43;;;6.25;;
55312;SDS011;46892;45.668;11.756;2022-07-21T05:37:44;10.68;;;5.30;;
55312;SDS011;46892;45.668;11.756;2022-07-21T05:40:10;10.23;;;6.00;;
55312;SDS011;46892;45.668;11.756;2022-07-21T05:42:36;7.57;;;5.13;;
55312;SDS011;46892;45.668;11.756;2022-07-21T05:45:04;11.40;;;6.20;;
55312;SDS011;46892;45.668;11.756;2022-07-21T05:47:31;12.65;;;6.22;;
55312;SDS011;46892;45.668;11.756;2022-07-21T05:49:57;14.07;;;6.20;;
55312;SDS011;46892;45.668;11.756;2022-07-21T05:52:23;12.13;;;5.82;;
55312;SDS011;46892;45.668;11.756;2022-07-21T05:54:49;11.73;;;6.30;;
55312;SDS011;46892;45.668;11.756;2022-07-21T05:57:15;7.60;;;4.93;;
55312;SDS011;46892;45.668;11.756;2022-07-21T05:59:42;8.93;;;5.03;;
55312;SDS011;46892;45.668;11.756;2022-07-21T06:02:08;10.85;;;5.90;;
55312;SDS011;46892;45.668;11.756;2022-07-21T06:04:33;9.45;;;5.43;;
55312;SDS011;46892;45.668;11.756;2022-07-21T06:06:59;8.43;;;5.15;;
55312;SDS011;46892;45.668;11.756;2022-07-21T06:09:24;9.77;;;5.40;;
55312;SDS011;46892;45.668;11.756;2022-07-21T06:11:50;8.38;;;5.53;;
55312;SDS011;46892;45.668;11.756;2022-07-21T06:14:16;12.15;;;5.65;;
55312;SDS011;46892;45.668;11.756;2022-07-21T06:16:42;13.23;;;5.57;;
55312;SDS011;46892;45.668;11.756;2022-07-21T06:19:07;9.30;;;4.80;;
55312;SDS011;46892;45.668;11.756;2022-07-21T06:21:33;10.73;;;5.13;;
55312;SDS011;46892;45.668;11.756;2022-07-21T06:23:59;9.25;;;4.60;;
55312;SDS011;46892;45.668;11.756;2022-07-21T06:26:25;7.22;;;5.00;;
55312;SDS011;46892;45.668;11.756;2022-07-21T06:28:51;16.10;;;5.25;;
55312;SDS011;46892;45.668;11.756;2022-07-21T06:31:16;8.00;;;4.47;;
55312;SDS011;46892;45.668;11.756;2022-07-21T06:33:42;11.35;;;4.90;;
55312;SDS011;46892;45.668;11.756;2022-07-21T06:36:08;5.97;;;4.53;;
55312;SDS011;46892;45.668;11.756;2022-07-21T06:38:34;8.88;;;5.10;;
55312;SDS011;46892;45.668;11.756;2022-07-21T06:40:59;9.18;;;4.57;;
55312;SDS011;46892;45.668;11.756;2022-07-21T06:43:25;6.88;;;4.93;;
55312;SDS011;46892;45.668;11.756;2022-07-21T06:45:51;6.97;;;4.68;;
55312;SDS011;46892;45.668;11.756;2022-07-21T06:48:16;7.93;;;4.45;;
55312;SDS011;46892;45.668;11.756;2022-07-21T06:50:42;8.40;;;4.97;;
55312;SDS011;46892;45.668;11.756;2022-07-21T06:53:08;11.05;;;4.55;;
55312;SDS011;46892;45.668;11.756;2022-07-21T06:55:34;7.57;;;4.65;;
55312;SDS011;46892;45.668;11.756;2022-07-21T06:58:14;6.70;;;4.32;;
55312;SDS011;46892;45.668;11.756;2022-07-21T07:00:43;8.02;;;4.30;;
55312;SDS011;46892;45.668;11.756;2022-07-21T07:03:10;11.10;;;5.13;;
55312;SDS011;46892;45.668;11.756;2022-07-21T07:05:36;8.35;;;4.60;;
55312;SDS011;46892;45.668;11.756;2022-07-21T07:08:02;10.70;;;4.53;;
55312;SDS011;46892;45.668;11.756;2022-07-21T07:10:28;13.10;;;4.43;;
55312;SDS011;46892;45.668;11.756;2022-07-21T07:12:54;8.95;;;4.03;;
55312;SDS011;46892;45.668;11.756;2022-07-21T07:15:21;7.20;;;4.32;;
55312;SDS011;46892;45.668;11.756;2022-07-21T07:17:50;5.82;;;4.20;;
55312;SDS011;46892;45.668;11.756;2022-07-21T07:20:16;8.32;;;3.78;;
55312;SDS011;46892;45.668;11.756;2022-07-21T07:22:42;17.02;;;4.40;;
55312;SDS011;46892;45.668;11.756;2022-07-21T07:25:08;8.82;;;4.50;;
55312;SDS011;46892;45.668;11.756;2022-07-21T07:27:34;9.77;;;5.22;;
55312;SDS011;46892;45.668;11.756;2022-07-21T07:30:00;11.60;;;4.50;;
55312;SDS011;46892;45.668;11.756;2022-07-21T07:32:27;5.90;;;4.45;;
55312;SDS011;46892;45.668;11.756;2022-07-21T07:34:52;9.75;;;4.55;;
55312;SDS011;46892;45.668;11.756;2022-07-21T07:37:18;6.78;;;4.30;;
55312;SDS011;46892;45.668;11.756;2022-07-21T07:39:44;6.57;;;4.38;;
55312;SDS011;46892;45.668;11.756;2022-07-21T07:42:10;6.15;;;3.95;;
55312;SDS011;46892;45.668;11.756;2022-07-21T07:44:36;6.07;;;3.83;;
55312;SDS011;46892;45.668;11.756;2022-07-21T07:47:01;6.78;;;4.28;;
55312;SDS011;46892;45.668;11.756;2022-07-21T07:49:28;9.43;;;4.20;;
55312;SDS011;46892;45.668;11.756;2022-07-21T07:51:54;7.00;;;4.10;;
55312;SDS011;46892;45.668;11.756;2022-07-21T07:54:20;6.55;;;4.38;;
55312;SDS011;46892;45.668;11.756;2022-07-21T07:56:46;9.82;;;4.68;;
55312;SDS011;46892;45.668;11.756;2022-07-21T07:59:12;7.18;;;4.10;;
55312;SDS011;46892;45.668;11.756;2022-07-21T08:01:37;7.85;;;4.45;;
55312;SDS011;46892;45.668;11.756;2022-07-21T08:04:03;13.80;;;4.13;;
55312;SDS011;46892;45.668;11.756;2022-07-21T08:06:29;8.98;;;4.68;;
55312;SDS011;46892;45.668;11.756;2022-07-21T08:08:54;9.32;;;4.47;;
55312;SDS011;46892;45.668;11.756;2022-07-21T08:11:20;13.02;;;4.70;;
55312;SDS011;46892;45.668;11.756;2022-07-21T08:13:46;8.02;;;4.50;;
55312;SDS011;46892;45.668;11.756;2022-07-21T08:16:12;7.95;;;4.18;;
55312;SDS011;46892;45.668;11.756;2022-07-21T08:18:40;9.40;;;4.40;;
55312;SDS011;46892;45.668;11.756;2022-07-21T08:21:06;9.18;;;4.63;;
55312;SDS011;46892;45.668;11.756;2022-07-21T08:23:32;7.22;;;4.70;;
55312;SDS011;46892;45.668;11.756;2022-07-21T08:25:58;7.32;;;4.30;;
55312;SDS011;46892;45.668;11.756;2022-07-21T08:28:23;8.93;;;4.57;;
55312;SDS011;46892;45.668;11.756;2022-07-21T08:30:49;7.25;;;4.00;;
55312;SDS011;46892;45.668;11.756;2022-07-21T08:33:15;8.05;;;4.18;;
55312;SDS011;46892;45.668;11.756;2022-07-21T08:35:40;5.75;;;3.88;;
55312;SDS011;46892;45.668;11.756;2022-07-21T08:38:07;11.07;;;4.22;;
55312;SDS011;46892;45.668;11.756;2022-07-21T08:40:35;5.75;;;3.95;;
55312;SDS011;46892;45.668;11.756;2022-07-21T08:43:03;6.18;;;3.75;;
55312;SDS011;46892;45.668;11.756;2022-07-21T08:45:30;6.07;;;4.13;;
55312;SDS011;46892;45.668;11.756;2022-07-21T08:47:56;7.55;;;3.70;;
55312;SDS011;46892;45.668;11.756;2022-07-21T08:50:23;9.27;;;3.72;;
55312;SDS011;46892;45.668;11.756;2022-07-21T08:52:53;6.22;;;4.07;;
55312;SDS011;46892;45.668;11.756;2022-07-21T08:55:20;5.05;;;3.60;;
55312;SDS011;46892;45.668;11.756;2022-07-21T08:57:46;5.72;;;3.88;;
55312;SDS011;46892;45.668;11.756;2022-07-21T09:00:11;5.88;;;4.00;;
55312;SDS011;46892;45.668;11.756;2022-07-21T09:02:37;5.93;;;3.80;;
55312;SDS011;46892;45.668;11.756;2022-07-21T09:05:04;6.15;;;3.97;;
55312;SDS011;46892;45.668;11.756;2022-07-21T09:10:14;5.00;;;3.67;;
55312;SDS011;46892;45.668;11.756;2022-07-21T09:12:54;5.55;;;3.47;;
55312;SDS011;46892;45.668;11.756;2022-07-21T09:15:22;5.82;;;3.33;;
55312;SDS011;46892;45.668;11.756;2022-07-21T09:18:08;5.65;;;3.65;;
55312;SDS011;46892;45.668;11.756;2022-07-21T09:20:36;7.65;;;3.50;;
55312;SDS011;46892;45.668;11.756;2022-07-21T09:23:08;6.10;;;3.13;;
55312;SDS011;46892;45.668;11.756;2022-07-21T09:28:10;6.72;;;2.63;;
55312;SDS011;46892;45.668;11.756;2022-07-21T09:30:55;3.38;;;2.60;;
55312;SDS011;46892;45.668;11.756;2022-07-21T09:33:26;4.35;;;3.08;;
55312;SDS011;46892;45.668;11.756;2022-07-21T09:35:56;5.13;;;2.72;;
55312;SDS011;46892;45.668;11.756;2022-07-21T09:38:24;4.75;;;2.80;;
55312;SDS011;46892;45.668;11.756;2022-07-21T09:40:50;6.45;;;3.20;;
55312;SDS011;46892;45.668;11.756;2022-07-21T09:43:32;9.75;;;3.42;;
55312;SDS011;46892;45.668;11.756;2022-07-21T09:46:04;5.72;;;3.90;;
55312;SDS011;46892;45.668;11.756;2022-07-21T09:48:31;7.28;;;3.63;;
55312;SDS011;46892;45.668;11.756;2022-07-21T09:54:12;6.15;;;3.13;;
55312;SDS011;46892;45.668;11.756;2022-07-21T09:56:39;5.95;;;3.10;;
55312;SDS011;46892;45.668;11.756;2022-07-21T09:59:07;7.03;;;2.90;;
55312;SDS011;46892;45.668;11.756;2022-07-21T10:01:35;6.70;;;3.40;;
55312;SDS011;46892;45.668;11.756;2022-07-21T10:04:01;5.25;;;3.40;;
55312;SDS011;46892;45.668;11.756;2022-07-21T10:06:29;8.65;;;3.70;;
55312;SDS011;46892;45.668;11.756;2022-07-21T10:08:57;9.15;;;3.40;;
55312;SDS011;46892;45.668;11.756;2022-07-21T10:11:24;8.23;;;3.40;;
55312;SDS011;46892;45.668;11.756;2022-07-21T10:13:51;5.65;;;2.90;;
55312;SDS011;46892;45.668;11.756;2022-07-21T10:16:17;5.85;;;3.40;;
55312;SDS011;46892;45.668;11.756;2022-07-21T10:18:59;6.50;;;3.28;;
55312;SDS011;46892;45.668;11.756;2022-07-21T10:21:36;6.07;;;3.20;;
55312;SDS011;46892;45.668;11.756;2022-07-21T10:24:12;6.97;;;2.80;;
55312;SDS011;46892;45.668;11.756;2022-07-21T10:26:39;6.15;;;3.20;;
55312;SDS011;46892;45.668;11.756;2022-07-21T10:32:14;5.70;;;3.03;;
55312;SDS011;46892;45.668;11.756;2022-07-21T10:34:43;6.85;;;3.10;;
55312;SDS011;46892;45.668;11.756;2022-07-21T10:37:09;6.07;;;3.15;;
55312;SDS011;46892;45.668;11.756;2022-07-21T10:39:36;5.43;;;2.85;;
55312;SDS011;46892;45.668;11.756;2022-07-21T10:42:14;3.15;;;2.60;;
55312;SDS011;46892;45.668;11.756;2022-07-21T10:44:41;4.20;;;2.53;;
55312;SDS011;46892;45.668;11.756;2022-07-21T11:03:21;5.20;;;2.70;;
55312;SDS011;46892;45.668;11.756;2022-07-21T11:08:40;3.97;;;2.55;;
55312;SDS011;46892;45.668;11.756;2022-07-21T11:11:16;5.30;;;3.10;;
55312;SDS011;46892;45.668;11.756;2022-07-21T11:13:57;3.95;;;2.80;;
55312;SDS011;46892;45.668;11.756;2022-07-21T11:22:12;5.65;;;2.47;;
55312;SDS011;46892;45.668;11.756;2022-07-21T11:24:40;4.95;;;2.50;;
55312;SDS011;46892;45.668;11.756;2022-07-21T11:27:09;4.50;;;3.20;;
55312;SDS011;46892;45.668;11.756;2022-07-21T11:29:37;5.38;;;2.72;;
55312;SDS011;46892;45.668;11.756;2022-07-21T11:32:05;11.32;;;2.92;;
55312;SDS011;46892;45.668;11.756;2022-07-21T11:40:02;6.43;;;2.90;;
55312;SDS011;46892;45.668;11.756;2022-07-21T11:42:30;6.22;;;3.42;;
55312;SDS011;46892;45.668;11.756;2022-07-21T11:44:56;5.85;;;3.30;;
55312;SDS011;46892;45.668;11.756;2022-07-21T11:47:22;8.52;;;3.72;;
55312;SDS011;46892;45.668;11.756;2022-07-21T11:49:54;4.93;;;3.35;;
55312;SDS011;46892;45.668;11.756;2022-07-21T11:52:29;4.93;;;3.50;;
55312;SDS011;46892;45.668;11.756;2022-07-21T11:54:56;5.50;;;3.47;;
55312;SDS011;46892;45.668;11.756;2022-07-21T11:57:23;6.10;;;3.40;;
55312;SDS011;46892;45.668;11.756;2022-07-21T11:59:50;7.35;;;3.90;;
55312;SDS011;46892;45.668;11.756;2022-07-21T12:02:21;10.40;;;3.60;;
55312;SDS011;46892;45.668;11.756;2022-07-21T12:04:49;7.40;;;3.15;;
55312;SDS011;46892;45.668;11.756;2022-07-21T12:09:58;5.85;;;3.85;;
55312;SDS011;46892;45.668;11.756;2022-07-21T12:12:43;7.63;;;4.25;;
55312;SDS011;46892;45.668;11.756;2022-07-21T12:15:17;8.05;;;4.07;;
55312;SDS011;46892;45.668;11.756;2022-07-21T12:20:24;7.22;;;4.22;;
55312;SDS011;46892;45.668;11.756;2022-07-21T12:22:52;9.45;;;4.82;;
55312;SDS011;46892;45.668;11.756;2022-07-21T12:25:18;7.82;;;4.50;;
55312;SDS011;46892;45.668;11.756;2022-07-21T12:28:04;5.57;;;4.10;;
55312;SDS011;46892;45.668;11.756;2022-07-21T12:30:38;5.35;;;4.00;;
55312;SDS011;46892;45.668;11.756;2022-07-21T12:35:38;6.80;;;3.75;;
55312;SDS011;46892;45.668;11.756;2022-07-21T12:38:15;6.53;;;4.20;;
55312;SDS011;46892;45.668;11.756;2022-07-21T12:40:42;8.35;;;4.45;;
55312;SDS011;46892;45.668;11.756;2022-07-21T12:43:11;6.93;;;4.00;;
55312;SDS011;46892;45.668;11.756;2022-07-21T12:45:46;5.78;;;3.80;;
55312;SDS011;46892;45.668;11.756;2022-07-21T12:51:05;5.38;;;4.03;;
55312;SDS011;46892;45.668;11.756;2022-07-21T12:53:36;4.80;;;3.35;;
55312;SDS011;46892;45.668;11.756;2022-07-21T12:56:15;4.63;;;3.50;;
55312;SDS011;46892;45.668;11.756;2022-07-21T12:58:43;7.82;;;3.80;;
55312;SDS011;46892;45.668;11.756;2022-07-21T13:01:09;7.97;;;3.60;;
55312;SDS011;46892;45.668;11.756;2022-07-21T13:03:35;5.47;;;3.30;;
55312;SDS011;46892;45.668;11.756;2022-07-21T13:06:02;5.85;;;3.80;;
55312;SDS011;46892;45.668;11.756;2022-07-21T13:08:29;4.97;;;3.58;;
55312;SDS011;46892;45.668;11.756;2022-07-21T13:10:55;5.00;;;3.33;;
55312;SDS011;46892;45.668;11.756;2022-07-21T13:13:21;5.93;;;3.42;;
55312;SDS011;46892;45.668;11.756;2022-07-21T13:15:47;6.70;;;3.70;;
55312;SDS011;46892;45.668;11.756;2022-07-21T13:18:13;4.05;;;3.28;;
55312;SDS011;46892;45.668;11.756;2022-07-21T13:20:38;8.70;;;3.35;;
55312;SDS011;46892;45.668;11.756;2022-07-21T13:23:05;10.48;;;3.30;;
55312;SDS011;46892;45.668;11.756;2022-07-21T13:25:31;4.55;;;2.88;;
55312;SDS011;46892;45.668;11.756;2022-07-21T13:27:57;4.57;;;3.13;;
55312;SDS011;46892;45.668;11.756;2022-07-21T13:30:22;8.35;;;3.03;;
55312;SDS011;46892;45.668;11.756;2022-07-21T13:32:48;5.90;;;3.28;;
55312;SDS011;46892;45.668;11.756;2022-07-21T13:35:14;6.68;;;3.17;;
55312;SDS011;46892;45.668;11.756;2022-07-21T13:37:40;4.70;;;3.00;;
55312;SDS011;46892;45.668;11.756;2022-07-21T13:40:05;5.45;;;3.40;;
55312;SDS011;46892;45.668;11.756;2022-07-21T13:42:32;5.03;;;3.45;;
55312;SDS011;46892;45.668;11.756;2022-07-21T13:44:57;5.80;;;3.20;;
55312;SDS011;46892;45.668;11.756;2022-07-21T13:47:23;5.88;;;3.30;;
55312;SDS011;46892;45.668;11.756;2022-07-21T13:49:49;6.03;;;3.38;;
55312;SDS011;46892;45.668;11.756;2022-07-21T13:52:14;6.60;;;3.47;;
55312;SDS011;46892;45.668;11.756;2022-07-21T13:54:40;5.78;;;3.38;;
55312;SDS011;46892;45.668;11.756;2022-07-21T13:57:06;5.13;;;3.42;;
55312;SDS011;46892;45.668;11.756;2022-07-21T13:59:31;4.70;;;3.28;;
55312;SDS011;46892;45.668;11.756;2022-07-21T14:01:57;4.93;;;3.30;;
55312;SDS011;46892;45.668;11.756;2022-07-21T14:04:23;5.32;;;3.17;;
55312;SDS011;46892;45.668;11.756;2022-07-21T14:06:48;4.80;;;3.47;;
55312;SDS011;46892;45.668;11.756;2022-07-21T14:09:15;6.82;;;3.63;;
55312;SDS011;46892;45.668;11.756;2022-07-21T14:11:42;4.88;;;3.20;;
55312;SDS011;46892;45.668;11.756;2022-07-21T14:14:09;4.53;;;2.95;;
55312;SDS011;46892;45.668;11.756;2022-07-21T14:16:35;7.07;;;3.30;;
55312;SDS011;46892;45.668;11.756;2022-07-21T14:19:01;5.28;;;3.50;;
55312;SDS011;46892;45.668;11.756;2022-07-21T14:21:27;4.28;;;2.92;;
55312;SDS011;46892;45.668;11.756;2022-07-21T14:23:52;4.28;;;3.28;;
55312;SDS011;46892;45.668;11.756;2022-07-21T14:26:44;4.60;;;3.28;;
55312;SDS011;46892;45.668;11.756;2022-07-21T14:29:10;5.43;;;3.53;;
55312;SDS011;46892;45.668;11.756;2022-07-21T14:31:36;5.60;;;3.65;;
55312;SDS011;46892;45.668;11.756;2022-07-21T14:34:01;5.85;;;3.78;;
55312;SDS011;46892;45.668;11.756;2022-07-21T14:36:27;4.15;;;2.88;;
55312;SDS011;46892;45.668;11.756;2022-07-21T14:38:53;5.85;;;3.13;;
55312;SDS011;46892;45.668;11.756;2022-07-21T14:41:19;5.50;;;3.35;;
55312;SDS011;46892;45.668;11.756;2022-07-21T14:43:44;5.85;;;3.40;;
55312;SDS011;46892;45.668;11.756;2022-07-21T14:46:10;12.18;;;3.95;;
55312;SDS011;46892;45.668;11.756;2022-07-21T14:48:36;6.75;;;3.80;;
55312;SDS011;46892;45.668;11.756;2022-07-21T14:51:02;6.00;;;3.28;;
55312;SDS011;46892;45.668;11.756;2022-07-21T14:53:27;5.63;;;3.33;;
55312;SDS011;46892;45.668;11.756;2022-07-21T14:55:53;3.20;;;2.88;;
55312;SDS011;46892;45.668;11.756;2022-07-21T14:58:19;4.82;;;3.42;;
55312;SDS011;46892;45.668;11.756;2022-07-21T15:00:44;4.50;;;3.22;;
55312;SDS011;46892;45.668;11.756;2022-07-21T15:03:10;4.93;;;3.20;;
55312;SDS011;46892;45.668;11.756;2022-07-21T15:05:36;5.28;;;3.00;;
55312;SDS011;46892;45.668;11.756;2022-07-21T15:08:02;6.13;;;3.38;;
55312;SDS011;46892;45.668;11.756;2022-07-21T15:10:27;5.88;;;3.05;;
55312;SDS011;46892;45.668;11.756;2022-07-21T15:12:53;4.93;;;3.13;;
55312;SDS011;46892;45.668;11.756;2022-07-21T15:15:19;6.03;;;3.80;;
55312;SDS011;46892;45.668;11.756;2022-07-21T15:17:44;6.97;;;3.60;;
55312;SDS011;46892;45.668;11.756;2022-07-21T15:20:10;5.00;;;3.30;;
55312;SDS011;46892;45.668;11.756;2022-07-21T15:22:37;5.75;;;3.45;;
55312;SDS011;46892;45.668;11.756;2022-07-21T15:25:03;5.82;;;3.25;;